createdAt,value
2024-02-21T12:24:26.572Z,10.35
2024-02-21T12:26:00.724Z,10.42
2024-02-21T12:27:32.621Z,10.48
2024-02-21T12:29:04.688Z,10.57
2024-02-21T12:30:39.558Z,10.68
2024-02-21T12:32:11.573Z,10.79
2024-02-21T12:33:44.651Z,10.95
2024-02-21T12:35:16.801Z,11.12
2024-02-21T12:36:48.802Z,11.27
2024-02-21T12:38:22.132Z,11.44
2024-02-21T12:39:54.004Z,11.56
2024-02-21T12:41:28.132Z,11.67
2024-02-21T12:43:04.141Z,11.73
2024-02-21T12:44:36.056Z,11.80
2024-02-21T12:46:09.259Z,11.84
2024-02-21T12:47:41.675Z,11.85
2024-02-21T12:49:13.728Z,11.89
2024-02-21T12:50:52.751Z,11.90
2024-02-21T12:52:25.222Z,11.94
2024-02-21T12:53:57.561Z,11.95
2024-02-21T12:55:29.460Z,12.00
2024-02-21T12:57:04.441Z,12.03
2024-02-21T12:58:36.372Z,12.09
2024-02-21T13:00:10.333Z,12.15
2024-02-21T13:01:42.547Z,12.19
2024-02-21T13:03:15.486Z,12.24
2024-02-21T13:04:47.347Z,12.28
2024-02-21T13:06:20.401Z,12.30
2024-02-21T13:07:52.662Z,12.34
2024-02-21T13:09:24.552Z,12.38
2024-02-21T13:10:56.616Z,12.40
2024-02-21T13:12:29.093Z,12.42
2024-02-21T13:14:01.013Z,12.43
2024-02-21T13:15:32.915Z,12.46
2024-02-21T13:17:04.949Z,12.47
2024-02-21T13:18:39.294Z,12.49
2024-02-21T13:20:12.454Z,12.50
2024-02-21T13:21:44.378Z,12.50
2024-02-21T13:23:16.247Z,12.50
2024-02-21T13:24:48.250Z,12.51
2024-02-21T13:26:21.535Z,12.50
2024-02-21T13:27:53.421Z,12.49
2024-02-21T13:29:25.304Z,12.47
2024-02-21T13:30:57.315Z,12.45
2024-02-21T13:32:29.230Z,12.47
2024-02-21T13:34:01.254Z,12.46
2024-02-21T13:35:33.306Z,12.47
2024-02-21T13:37:06.014Z,12.47
2024-02-21T13:38:37.838Z,12.47
2024-02-21T13:40:14.873Z,12.46
2024-02-21T13:41:48.064Z,12.44
2024-02-21T13:43:20.018Z,12.43
2024-02-21T13:44:52.023Z,12.45
2024-02-21T13:46:23.950Z,12.44
2024-02-21T13:47:58.536Z,12.44
2024-02-21T13:49:31.781Z,12.44
2024-02-21T13:51:04.172Z,12.44
2024-02-21T13:52:36.543Z,12.48
2024-02-21T13:54:10.897Z,12.49
2024-02-21T13:55:45.019Z,12.51
2024-02-21T13:57:16.909Z,12.53
2024-02-21T13:58:49.025Z,12.56
2024-02-21T14:00:21.491Z,12.60
2024-02-21T14:01:53.483Z,12.64
2024-02-21T14:03:27.217Z,12.68
2024-02-21T14:04:59.584Z,12.74
2024-02-21T14:06:32.024Z,12.81
2024-02-21T14:08:04.312Z,12.89
2024-02-21T14:09:36.357Z,12.97
2024-02-21T14:11:08.822Z,13.01
2024-02-21T14:12:41.556Z,13.06
2024-02-21T14:14:13.504Z,13.12
2024-02-21T14:15:47.515Z,13.17
2024-02-21T14:17:19.977Z,13.22
2024-02-21T14:18:51.845Z,13.29
2024-02-21T14:20:23.809Z,13.32
2024-02-21T14:21:55.711Z,13.37
2024-02-21T14:23:27.547Z,13.41
2024-02-21T14:24:59.543Z,13.46
2024-02-21T14:26:32.414Z,13.50
2024-02-21T14:28:04.492Z,13.56
2024-02-21T14:29:36.486Z,13.61
2024-02-21T14:31:10.333Z,13.65
2024-02-21T14:32:45.673Z,13.71
2024-02-21T14:34:18.315Z,13.76
2024-02-21T14:35:50.147Z,13.82
2024-02-21T14:37:23.060Z,13.89
2024-02-21T14:38:54.961Z,13.96
2024-02-21T14:40:26.835Z,14.02
2024-02-21T14:41:58.692Z,14.08
2024-02-21T14:43:30.650Z,14.15
2024-02-21T14:45:05.725Z,14.21
2024-02-21T14:46:39.786Z,14.25
2024-02-21T14:48:11.750Z,14.29
2024-02-21T14:49:44.980Z,14.30
2024-02-21T14:51:16.867Z,14.32
2024-02-21T14:52:48.778Z,14.35
2024-02-21T14:54:21.209Z,14.36
2024-02-21T14:55:53.126Z,14.38
2024-02-21T14:57:26.380Z,14.39
2024-02-21T14:59:04.058Z,14.37
2024-02-21T15:00:40.868Z,14.36
2024-02-21T15:02:12.784Z,14.34
2024-02-21T15:03:44.882Z,14.31
2024-02-21T15:05:16.780Z,14.27
2024-02-21T15:06:49.904Z,14.24
2024-02-21T15:08:21.756Z,14.17
2024-02-21T15:09:53.963Z,14.10
2024-02-21T15:11:25.980Z,14.03
2024-02-21T15:12:57.991Z,13.96
2024-02-21T15:14:29.870Z,13.90
2024-02-21T15:16:01.708Z,13.84
2024-02-21T15:17:33.621Z,13.79
2024-02-21T15:19:05.522Z,13.72
2024-02-21T15:20:38.407Z,13.68
2024-02-21T15:22:14.756Z,13.62
2024-02-21T15:23:46.609Z,13.55
2024-02-21T15:25:19.335Z,13.49
2024-02-21T15:26:51.311Z,13.41
2024-02-21T15:28:23.284Z,13.34
2024-02-21T15:29:56.073Z,13.26
2024-02-21T15:31:27.960Z,13.18
2024-02-21T15:33:04.311Z,13.09
2024-02-21T15:34:36.452Z,13.00
2024-02-21T15:36:08.729Z,12.92
2024-02-21T15:37:41.119Z,12.84
2024-02-21T15:39:13.638Z,12.74
2024-02-21T15:40:45.532Z,12.64
2024-02-21T15:42:17.443Z,12.55
2024-02-21T15:43:49.407Z,12.45
2024-02-21T15:45:21.696Z,12.36
2024-02-21T15:46:54.578Z,12.25
2024-02-21T15:48:26.919Z,12.15
2024-02-21T15:50:00.533Z,12.06
2024-02-21T15:51:32.487Z,11.95
2024-02-21T15:53:04.699Z,11.84
2024-02-21T15:54:37.662Z,11.74
2024-02-21T15:56:09.637Z,11.62
2024-02-21T15:57:41.537Z,11.51
2024-02-21T15:59:14.151Z,11.38
2024-02-21T16:00:46.514Z,11.26
2024-02-21T16:02:18.755Z,11.14
2024-02-21T16:03:50.788Z,11.01
2024-02-21T16:05:23.260Z,10.91
2024-02-21T16:06:55.265Z,10.78
2024-02-21T16:08:27.131Z,10.69
2024-02-21T16:09:59.006Z,10.57
2024-02-21T16:11:30.908Z,10.46
2024-02-21T16:13:02.973Z,10.37
2024-02-21T16:14:35.218Z,10.28
2024-02-21T16:16:07.366Z,10.22
2024-02-21T16:17:41.002Z,10.10
2024-02-21T16:19:12.993Z,10.04
2024-02-21T16:20:44.964Z,9.93
2024-02-21T16:22:16.827Z,9.85
2024-02-21T16:23:48.694Z,9.75
2024-02-21T16:25:21.644Z,9.67
2024-02-21T16:26:53.785Z,9.58
2024-02-21T16:28:26.687Z,9.47
2024-02-21T16:29:58.609Z,9.39
2024-02-21T16:31:30.926Z,9.30
2024-02-21T16:33:03.084Z,9.21
2024-02-21T16:34:35.202Z,9.10
2024-02-21T16:36:08.919Z,9.00
2024-02-21T16:37:41.096Z,8.92
2024-02-21T16:39:13.228Z,8.81
2024-02-21T16:40:45.525Z,8.73
2024-02-21T16:42:17.419Z,8.64
2024-02-21T16:43:49.870Z,8.56
2024-02-21T16:45:22.801Z,8.48
2024-02-21T16:46:55.350Z,8.40
2024-02-21T16:48:27.493Z,8.34
2024-02-21T16:49:59.622Z,8.24
2024-02-21T16:51:31.816Z,8.16
2024-02-21T16:53:05.046Z,8.07
2024-02-21T16:54:37.126Z,8.00
2024-02-21T16:56:09.241Z,7.93
2024-02-21T16:57:41.190Z,7.84
2024-02-21T16:59:13.175Z,7.78
2024-02-21T17:00:45.046Z,7.71
2024-02-21T17:02:17.039Z,7.64
2024-02-21T17:03:50.210Z,7.60
2024-02-21T17:05:26.558Z,7.56
2024-02-21T17:06:59.238Z,7.53
2024-02-21T17:08:34.535Z,7.49
2024-02-21T17:10:06.711Z,7.46
2024-02-21T17:11:38.735Z,7.43
2024-02-21T17:13:10.640Z,7.38
2024-02-21T17:14:44.449Z,7.36
2024-02-21T17:16:17.459Z,7.33
2024-02-21T17:17:50.087Z,7.32
2024-02-21T17:19:22.110Z,7.27
2024-02-21T17:20:54.094Z,7.26
2024-02-21T17:22:25.977Z,7.24
2024-02-21T17:23:57.810Z,7.20
2024-02-21T17:25:29.997Z,7.16
2024-02-21T17:27:01.868Z,7.15
2024-02-21T17:28:33.877Z,7.10
2024-02-21T17:30:07.287Z,7.08
2024-02-21T17:31:39.215Z,7.02
2024-02-21T17:33:11.335Z,6.96
2024-02-21T17:34:43.426Z,6.92
2024-02-21T17:36:15.348Z,6.88
2024-02-21T17:37:47.227Z,6.81
2024-02-21T17:39:19.666Z,6.77
2024-02-21T17:40:52.424Z,6.72
2024-02-21T17:42:25.749Z,6.64
2024-02-21T17:43:57.728Z,6.60
2024-02-21T17:45:29.721Z,6.54
2024-02-21T17:47:01.728Z,6.50
2024-02-21T17:48:34.779Z,6.44
2024-02-21T17:50:07.321Z,6.38
2024-02-21T17:51:39.216Z,6.33
2024-02-21T17:53:11.328Z,6.28
2024-02-21T17:54:45.734Z,6.22
2024-02-21T17:56:19.168Z,6.15
2024-02-21T17:57:51.131Z,6.10
2024-02-21T17:59:23.000Z,6.05
2024-02-21T18:00:59.075Z,5.99
2024-02-21T18:02:31.081Z,5.95
2024-02-21T18:04:03.309Z,5.91
2024-02-21T18:05:35.304Z,5.86
2024-02-21T18:07:07.319Z,5.81
2024-02-21T18:08:40.277Z,5.76
2024-02-21T18:10:13.171Z,5.72
2024-02-21T18:11:46.834Z,5.67
2024-02-21T18:13:18.817Z,5.63
2024-02-21T18:14:51.986Z,5.60
2024-02-21T18:16:25.342Z,5.59
2024-02-21T18:17:58.529Z,5.55
2024-02-21T18:19:35.354Z,5.54
2024-02-21T18:21:08.256Z,5.52
2024-02-21T18:22:40.215Z,5.51
2024-02-21T18:24:12.181Z,5.51
2024-02-21T18:25:44.280Z,5.54
2024-02-21T18:27:16.148Z,5.55
2024-02-21T18:28:48.074Z,5.61
2024-02-21T18:30:20.046Z,5.66
2024-02-21T18:31:51.951Z,5.74
2024-02-21T18:33:24.293Z,5.81
2024-02-21T18:34:56.644Z,5.88
2024-02-21T18:36:29.477Z,5.95
2024-02-21T18:38:03.514Z,6.04
2024-02-21T18:39:35.441Z,6.11
2024-02-21T18:41:09.566Z,6.18
2024-02-21T18:42:44.376Z,6.25
2024-02-21T18:44:16.306Z,6.30
2024-02-21T18:45:48.426Z,6.37
2024-02-21T18:47:21.591Z,6.42
2024-02-21T18:48:53.528Z,6.48
2024-02-21T18:50:26.524Z,6.51
2024-02-21T18:51:58.555Z,6.57
2024-02-21T18:53:30.393Z,6.63
2024-02-21T18:55:07.088Z,6.70
2024-02-21T18:56:39.370Z,6.75
2024-02-21T18:58:11.237Z,6.80
2024-02-21T18:59:43.129Z,6.84
2024-02-21T19:01:16.632Z,6.90
2024-02-21T19:02:48.865Z,6.97
2024-02-21T19:04:20.786Z,7.01
2024-02-21T19:05:52.782Z,7.07
2024-02-21T19:07:24.708Z,7.11
2024-02-21T19:08:56.988Z,7.14
2024-02-21T19:10:29.248Z,7.17
2024-02-21T19:12:01.548Z,7.21
2024-02-21T19:13:33.792Z,7.24
2024-02-21T19:15:06.228Z,7.30
2024-02-21T19:16:38.509Z,7.34
2024-02-21T19:18:13.015Z,7.37
2024-02-21T19:19:45.772Z,7.40
2024-02-21T19:21:18.102Z,7.45
2024-02-21T19:22:50.040Z,7.48
2024-02-21T19:24:21.947Z,7.52
2024-02-21T19:25:54.473Z,7.59
2024-02-21T19:27:26.339Z,7.65
2024-02-21T19:28:58.452Z,7.69
2024-02-21T19:30:30.334Z,7.73
2024-02-21T19:32:02.300Z,7.73
2024-02-21T19:33:34.464Z,7.74
2024-02-21T19:35:07.094Z,7.79
2024-02-21T19:36:39.855Z,7.83
2024-02-21T19:38:11.860Z,7.89
2024-02-21T19:39:43.731Z,7.94
2024-02-21T19:41:16.641Z,7.97
2024-02-21T19:42:48.823Z,7.99
2024-02-21T19:44:23.185Z,8.03
2024-02-21T19:45:55.175Z,8.05
2024-02-21T19:47:27.194Z,8.06
2024-02-21T19:48:59.135Z,8.10
2024-02-21T19:50:34.432Z,8.13
2024-02-21T19:52:06.572Z,8.15
2024-02-21T19:53:38.876Z,8.15
2024-02-21T19:55:10.893Z,8.16
2024-02-21T19:56:42.762Z,8.15
2024-02-21T19:58:15.093Z,8.16
2024-02-21T19:59:49.345Z,8.17
2024-02-21T20:01:21.557Z,8.18
2024-02-21T20:02:53.806Z,8.18
2024-02-21T20:04:25.668Z,8.19
2024-02-21T20:05:57.855Z,8.20
2024-02-21T20:07:29.774Z,8.20
2024-02-21T20:09:07.329Z,8.19
2024-02-21T20:10:39.487Z,8.20
2024-02-21T20:12:11.541Z,8.20
2024-02-21T20:13:43.594Z,8.20
2024-02-21T20:15:15.616Z,8.20
2024-02-21T20:16:48.309Z,8.21
2024-02-21T20:18:20.502Z,8.20
2024-02-21T20:19:52.860Z,8.19
2024-02-21T20:21:24.773Z,8.16
2024-02-21T20:22:57.020Z,8.16
2024-02-21T20:24:35.879Z,8.14
2024-02-21T20:26:12.292Z,8.10
2024-02-21T20:27:45.235Z,8.06
2024-02-21T20:29:18.385Z,8.02
2024-02-21T20:30:50.393Z,8.00
2024-02-21T20:32:22.215Z,7.96
2024-02-21T20:33:54.714Z,7.93
2024-02-21T20:35:27.506Z,7.90
2024-02-21T20:36:59.566Z,7.84
2024-02-21T20:38:31.653Z,7.82
2024-02-21T20:40:08.027Z,7.78
2024-02-21T20:41:39.965Z,7.74
2024-02-21T20:43:12.902Z,7.71
2024-02-21T20:44:45.490Z,7.67
2024-02-21T20:46:18.287Z,7.65
2024-02-21T20:47:50.149Z,7.61
2024-02-21T20:49:22.228Z,7.56
2024-02-21T20:50:54.160Z,7.52
2024-02-21T20:52:27.337Z,7.50
2024-02-21T20:53:59.244Z,7.48
2024-02-21T20:55:32.312Z,7.45
2024-02-21T20:57:04.719Z,7.43
2024-02-21T20:58:36.712Z,7.40
